sensor_id;sensor_type;location;lat;lon;timestamp;temperature;humidity
36280;DHT22;22317;47.936;12.742;2023-06-04T00:00:43;13.80;41.70
36280;DHT22;22317;47.936;12.742;2023-06-04T00:03:10;13.80;41.80
36280;DHT22;22317;47.936;12.742;2023-06-04T00:05:35;13.80;41.90
36280;DHT22;22317;47.936;12.742;2023-06-04T00:08:01;13.80;42.10
36280;DHT22;22317;47.936;12.742;2023-06-04T00:10:27;13.70;42.10
36280;DHT22;22317;47.936;12.742;2023-06-04T00:12:53;13.60;42.20
36280;DHT22;22317;47.936;12.742;2023-06-04T00:15:19;13.60;42.60
36280;DHT22;22317;47.936;12.742;2023-06-04T00:17:44;13.60;42.50
36280;DHT22;22317;47.936;12.742;2023-06-04T00:20:11;13.50;42.50
36280;DHT22;22317;47.936;12.742;2023-06-04T00:22:36;13.50;42.70
36280;DHT22;22317;47.936;12.742;2023-06-04T00:25:03;13.50;42.70
36280;DHT22;22317;47.936;12.742;2023-06-04T00:27:29;13.40;42.70
36280;DHT22;22317;47.936;12.742;2023-06-04T00:29:55;13.40;42.80
36280;DHT22;22317;47.936;12.742;2023-06-04T00:32:21;13.40;42.90
36280;DHT22;22317;47.936;12.742;2023-06-04T00:34:54;13.40;42.90
36280;DHT22;22317;47.936;12.742;2023-06-04T00:37:22;13.40;43.20
36280;DHT22;22317;47.936;12.742;2023-06-04T00:39:48;13.40;43.20
36280;DHT22;22317;47.936;12.742;2023-06-04T00:42:14;13.40;43.30
36280;DHT22;22317;47.936;12.742;2023-06-04T00:44:40;13.40;43.50
36280;DHT22;22317;47.936;12.742;2023-06-04T00:47:11;13.30;43.50
36280;DHT22;22317;47.936;12.742;2023-06-04T00:49:38;13.30;43.60
36280;DHT22;22317;47.936;12.742;2023-06-04T00:52:04;13.30;43.60
36280;DHT22;22317;47.936;12.742;2023-06-04T00:54:31;13.20;43.70
36280;DHT22;22317;47.936;12.742;2023-06-04T00:56:59;13.20;43.80
36280;DHT22;22317;47.936;12.742;2023-06-04T00:59:25;13.20;43.80
36280;DHT22;22317;47.936;12.742;2023-06-04T01:01:59;13.10;43.80
36280;DHT22;22317;47.936;12.742;2023-06-04T01:07:25;13.00;44.20
36280;DHT22;22317;47.936;12.742;2023-06-04T01:09:52;12.90;44.10
36280;DHT22;22317;47.936;12.742;2023-06-04T01:12:18;12.90;51.60
36280;DHT22;22317;47.936;12.742;2023-06-04T01:14:44;12.90;44.50
36280;DHT22;22317;47.936;12.742;2023-06-04T01:17:26;12.80;49.40
36280;DHT22;22317;47.936;12.742;2023-06-04T01:25:20;12.70;51.70
36280;DHT22;22317;47.936;12.742;2023-06-04T01:27:51;12.70;51.90
36280;DHT22;22317;47.936;12.742;2023-06-04T01:30:24;12.60;49.60
36280;DHT22;22317;47.936;12.742;2023-06-04T01:32:54;12.60;48.60
36280;DHT22;22317;47.936;12.742;2023-06-04T01:35:21;12.60;52.10
36280;DHT22;22317;47.936;12.742;2023-06-04T01:37:47;12.60;52.50
36280;DHT22;22317;47.936;12.742;2023-06-04T01:40:14;12.50;45.40
36280;DHT22;22317;47.936;12.742;2023-06-04T01:42:41;12.50;45.40
36280;DHT22;22317;47.936;12.742;2023-06-04T01:45:07;12.50;51.90
36280;DHT22;22317;47.936;12.742;2023-06-04T01:47:34;12.50;53.40
36280;DHT22;22317;47.936;12.742;2023-06-04T01:50:03;12.50;55.30
36280;DHT22;22317;47.936;12.742;2023-06-04T01:52:29;12.50;54.50
36280;DHT22;22317;47.936;12.742;2023-06-04T01:54:55;12.40;54.60
36280;DHT22;22317;47.936;12.742;2023-06-04T01:57:24;12.40;54.70
36280;DHT22;22317;47.936;12.742;2023-06-04T01:59:50;12.40;54.40
36280;DHT22;22317;47.936;12.742;2023-06-04T02:02:16;12.30;53.00
36280;DHT22;22317;47.936;12.742;2023-06-04T02:04:42;12.30;54.70
36280;DHT22;22317;47.936;12.742;2023-06-04T02:07:11;12.30;52.90
36280;DHT22;22317;47.936;12.742;2023-06-04T02:09:39;12.30;54.00
36280;DHT22;22317;47.936;12.742;2023-06-04T02:12:06;12.30;53.50
36280;DHT22;22317;47.936;12.742;2023-06-04T02:14:31;12.30;56.00
36280;DHT22;22317;47.936;12.742;2023-06-04T02:16:57;12.30;58.20
36280;DHT22;22317;47.936;12.742;2023-06-04T02:19:26;12.20;55.80
36280;DHT22;22317;47.936;12.742;2023-06-04T02:21:53;12.20;57.80
36280;DHT22;22317;47.936;12.742;2023-06-04T02:24:19;12.40;56.80
36280;DHT22;22317;47.936;12.742;2023-06-04T02:26:46;12.20;57.20
36280;DHT22;22317;47.936;12.742;2023-06-04T02:29:12;12.20;56.00
36280;DHT22;22317;47.936;12.742;2023-06-04T02:31:39;12.30;57.20
36280;DHT22;22317;47.936;12.742;2023-06-04T02:34:04;12.30;57.30
36280;DHT22;22317;47.936;12.742;2023-06-04T02:36:30;12.30;57.00
36280;DHT22;22317;47.936;12.742;2023-06-04T02:38:56;12.20;57.10
36280;DHT22;22317;47.936;12.742;2023-06-04T02:41:24;12.20;57.10
36280;DHT22;22317;47.936;12.742;2023-06-04T02:43:50;12.20;57.40
36280;DHT22;22317;47.936;12.742;2023-06-04T02:46:16;12.20;57.20
36280;DHT22;22317;47.936;12.742;2023-06-04T02:48:42;12.20;55.40
36280;DHT22;22317;47.936;12.742;2023-06-04T02:51:08;12.20;56.10
36280;DHT22;22317;47.936;12.742;2023-06-04T02:53:36;12.20;57.50
36280;DHT22;22317;47.936;12.742;2023-06-04T02:56:02;12.20;57.10
36280;DHT22;22317;47.936;12.742;2023-06-04T02:58:28;12.20;57.20
36280;DHT22;22317;47.936;12.742;2023-06-04T03:00:55;12.20;56.20
36280;DHT22;22317;47.936;12.742;2023-06-04T03:03:21;12.30;57.30
36280;DHT22;22317;47.936;12.742;2023-06-04T03:05:47;12.30;56.80
36280;DHT22;22317;47.936;12.742;2023-06-04T03:08:13;12.30;54.50
36280;DHT22;22317;47.936;12.742;2023-06-04T03:10:39;12.30;54.60
36280;DHT22;22317;47.936;12.742;2023-06-04T03:13:05;12.30;57.00
36280;DHT22;22317;47.936;12.742;2023-06-04T03:15:30;12.30;57.00
36280;DHT22;22317;47.936;12.742;2023-06-04T03:17:56;12.30;54.20
36280;DHT22;22317;47.936;12.742;2023-06-04T03:20:23;12.40;50.40
36280;DHT22;22317;47.936;12.742;2023-06-04T03:22:51;12.40;55.90
36280;DHT22;22317;47.936;12.742;2023-06-04T03:25:17;12.40;54.10
36280;DHT22;22317;47.936;12.742;2023-06-04T03:27:42;12.50;53.70
36280;DHT22;22317;47.936;12.742;2023-06-04T03:30:09;12.50;53.60
36280;DHT22;22317;47.936;12.742;2023-06-04T03:32:45;12.50;55.60
36280;DHT22;22317;47.936;12.742;2023-06-04T03:35:11;12.40;53.80
36280;DHT22;22317;47.936;12.742;2023-06-04T03:37:37;12.40;54.80
36280;DHT22;22317;47.936;12.742;2023-06-04T03:40:05;12.40;54.40
36280;DHT22;22317;47.936;12.742;2023-06-04T03:42:33;12.40;54.80
36280;DHT22;22317;47.936;12.742;2023-06-04T03:45:00;12.40;55.30
36280;DHT22;22317;47.936;12.742;2023-06-04T03:47:26;12.40;53.10
36280;DHT22;22317;47.936;12.742;2023-06-04T03:49:52;12.40;55.50
36280;DHT22;22317;47.936;12.742;2023-06-04T03:52:18;12.50;54.50
36280;DHT22;22317;47.936;12.742;2023-06-04T03:54:44;12.50;54.30
36280;DHT22;22317;47.936;12.742;2023-06-04T03:57:10;12.50;53.60
36280;DHT22;22317;47.936;12.742;2023-06-04T03:59:35;12.50;54.90
36280;DHT22;22317;47.936;12.742;2023-06-04T04:02:01;12.60;53.30
36280;DHT22;22317;47.936;12.742;2023-06-04T04:04:28;12.60;53.90
36280;DHT22;22317;47.936;12.742;2023-06-04T04:06:54;12.70;55.10
36280;DHT22;22317;47.936;12.742;2023-06-04T04:09:20;12.60;55.00
36280;DHT22;22317;47.936;12.742;2023-06-04T04:11:45;12.70;54.60
36280;DHT22;22317;47.936;12.742;2023-06-04T04:14:12;12.70;55.40
36280;DHT22;22317;47.936;12.742;2023-06-04T04:16:38;12.70;55.40
36280;DHT22;22317;47.936;12.742;2023-06-04T04:19:04;12.70;54.80
36280;DHT22;22317;47.936;12.742;2023-06-04T04:21:35;12.70;54.90
36280;DHT22;22317;47.936;12.742;2023-06-04T04:24:03;12.80;55.10
36280;DHT22;22317;47.936;12.742;2023-06-04T04:26:29;12.80;55.00
36280;DHT22;22317;47.936;12.742;2023-06-04T04:28:57;12.80;54.80
36280;DHT22;22317;47.936;12.742;2023-06-04T04:31:27;12.80;54.90
36280;DHT22;22317;47.936;12.742;2023-06-04T04:33:55;12.90;54.80
36280;DHT22;22317;47.936;12.742;2023-06-04T04:36:21;13.00;55.30
36280;DHT22;22317;47.936;12.742;2023-06-04T04:38:47;13.00;54.80
36280;DHT22;22317;47.936;12.742;2023-06-04T04:41:20;13.10;54.40
36280;DHT22;22317;47.936;12.742;2023-06-04T04:43:48;13.10;54.50
36280;DHT22;22317;47.936;12.742;2023-06-04T04:46:19;13.20;53.80
36280;DHT22;22317;47.936;12.742;2023-06-04T04:48:46;13.20;53.70
36280;DHT22;22317;47.936;12.742;2023-06-04T04:51:11;13.30;53.80
36280;DHT22;22317;47.936;12.742;2023-06-04T04:53:37;13.30;53.10
36280;DHT22;22317;47.936;12.742;2023-06-04T04:56:03;13.30;52.90
36280;DHT22;22317;47.936;12.742;2023-06-04T04:58:31;13.40;53.60
36280;DHT22;22317;47.936;12.742;2023-06-04T05:00:58;13.50;53.30
36280;DHT22;22317;47.936;12.742;2023-06-04T05:03:23;13.50;53.70
36280;DHT22;22317;47.936;12.742;2023-06-04T05:05:49;13.60;53.90
36280;DHT22;22317;47.936;12.742;2023-06-04T05:08:15;13.60;54.40
36280;DHT22;22317;47.936;12.742;2023-06-04T05:10:42;13.60;54.20
36280;DHT22;22317;47.936;12.742;2023-06-04T05:13:09;13.70;54.30
36280;DHT22;22317;47.936;12.742;2023-06-04T05:15:45;13.70;53.90
36280;DHT22;22317;47.936;12.742;2023-06-04T05:18:16;13.70;54.10
36280;DHT22;22317;47.936;12.742;2023-06-04T05:20:42;13.80;54.20
36280;DHT22;22317;47.936;12.742;2023-06-04T05:23:10;13.80;53.30
36280;DHT22;22317;47.936;12.742;2023-06-04T05:25:38;13.80;54.20
36280;DHT22;22317;47.936;12.742;2023-06-04T05:28:05;13.90;53.60
36280;DHT22;22317;47.936;12.742;2023-06-04T05:30:33;13.90;53.30
36280;DHT22;22317;47.936;12.742;2023-06-04T05:32:59;13.90;53.50
36280;DHT22;22317;47.936;12.742;2023-06-04T05:35:26;14.00;53.60
36280;DHT22;22317;47.936;12.742;2023-06-04T05:37:52;14.10;53.40
36280;DHT22;22317;47.936;12.742;2023-06-04T05:40:24;14.20;52.70
36280;DHT22;22317;47.936;12.742;2023-06-04T05:42:50;14.20;52.50
36280;DHT22;22317;47.936;12.742;2023-06-04T05:45:16;14.30;52.20
36280;DHT22;22317;47.936;12.742;2023-06-04T05:47:43;14.40;51.90
36280;DHT22;22317;47.936;12.742;2023-06-04T05:50:09;14.50;51.70
36280;DHT22;22317;47.936;12.742;2023-06-04T05:52:36;14.50;51.30
36280;DHT22;22317;47.936;12.742;2023-06-04T05:55:04;14.60;51.40
36280;DHT22;22317;47.936;12.742;2023-06-04T05:57:33;14.60;51.00
36280;DHT22;22317;47.936;12.742;2023-06-04T05:59:59;14.60;51.30
36280;DHT22;22317;47.936;12.742;2023-06-04T06:02:24;14.60;50.70
36280;DHT22;22317;47.936;12.742;2023-06-04T06:04:51;14.70;50.60
36280;DHT22;22317;47.936;12.742;2023-06-04T06:07:16;14.70;51.10
36280;DHT22;22317;47.936;12.742;2023-06-04T06:09:42;14.90;51.10
36280;DHT22;22317;47.936;12.742;2023-06-04T06:12:08;15.00;50.80
36280;DHT22;22317;47.936;12.742;2023-06-04T06:14:36;15.00;50.40
36280;DHT22;22317;47.936;12.742;2023-06-04T06:17:02;15.10;50.30
36280;DHT22;22317;47.936;12.742;2023-06-04T06:19:29;15.20;50.20
36280;DHT22;22317;47.936;12.742;2023-06-04T06:21:55;15.30;50.10
36280;DHT22;22317;47.936;12.742;2023-06-04T06:24:22;15.40;50.20
36280;DHT22;22317;47.936;12.742;2023-06-04T06:26:47;15.60;50.40
36280;DHT22;22317;47.936;12.742;2023-06-04T06:29:14;15.50;50.20
36280;DHT22;22317;47.936;12.742;2023-06-04T06:31:40;15.50;49.90
36280;DHT22;22317;47.936;12.742;2023-06-04T06:34:06;15.50;48.60
36280;DHT22;22317;47.936;12.742;2023-06-04T06:36:31;15.50;48.40
36280;DHT22;22317;47.936;12.742;2023-06-04T06:38:58;15.60;48.90
36280;DHT22;22317;47.936;12.742;2023-06-04T06:41:24;15.70;48.90
36280;DHT22;22317;47.936;12.742;2023-06-04T06:43:49;15.80;48.70
36280;DHT22;22317;47.936;12.742;2023-06-04T06:46:16;15.90;48.60
36280;DHT22;22317;47.936;12.742;2023-06-04T06:48:42;15.90;48.40
36280;DHT22;22317;47.936;12.742;2023-06-04T06:51:11;16.00;48.10
36280;DHT22;22317;47.936;12.742;2023-06-04T06:53:37;16.00;48.20
36280;DHT22;22317;47.936;12.742;2023-06-04T06:56:02;16.10;47.80
36280;DHT22;22317;47.936;12.742;2023-06-04T06:58:28;16.10;47.80
36280;DHT22;22317;47.936;12.742;2023-06-04T07:00:54;16.20;47.70
36280;DHT22;22317;47.936;12.742;2023-06-04T07:03:22;16.20;46.70
36280;DHT22;22317;47.936;12.742;2023-06-04T07:05:47;16.10;46.60
36280;DHT22;22317;47.936;12.742;2023-06-04T07:08:14;16.20;46.60
36280;DHT22;22317;47.936;12.742;2023-06-04T07:10:40;16.20;47.70
36280;DHT22;22317;47.936;12.742;2023-06-04T07:13:05;16.20;47.60
36280;DHT22;22317;47.936;12.742;2023-06-04T07:15:31;16.30;47.70
36280;DHT22;22317;47.936;12.742;2023-06-04T07:17:57;16.40;41.40
36280;DHT22;22317;47.936;12.742;2023-06-04T07:20:23;16.50;41.50
36280;DHT22;22317;47.936;12.742;2023-06-04T07:22:48;16.60;41.30
36280;DHT22;22317;47.936;12.742;2023-06-04T07:25:14;16.70;45.10
36280;DHT22;22317;47.936;12.742;2023-06-04T07:27:40;16.80;49.50
36280;DHT22;22317;47.936;12.742;2023-06-04T07:30:06;16.90;49.80
36280;DHT22;22317;47.936;12.742;2023-06-04T07:32:33;16.90;49.90
36280;DHT22;22317;47.936;12.742;2023-06-04T07:34:59;17.10;49.60
36280;DHT22;22317;47.936;12.742;2023-06-04T07:37:25;17.10;49.60
36280;DHT22;22317;47.936;12.742;2023-06-04T07:39:51;17.20;49.50
36280;DHT22;22317;47.936;12.742;2023-06-04T07:42:16;17.30;49.50
36280;DHT22;22317;47.936;12.742;2023-06-04T07:44:42;17.30;49.20
36280;DHT22;22317;47.936;12.742;2023-06-04T07:47:08;17.40;48.70
36280;DHT22;22317;47.936;12.742;2023-06-04T07:49:33;17.50;48.70
36280;DHT22;22317;47.936;12.742;2023-06-04T07:51:59;17.80;49.20
36280;DHT22;22317;47.936;12.742;2023-06-04T07:54:25;17.60;48.40
36280;DHT22;22317;47.936;12.742;2023-06-04T07:56:51;17.70;48.20
36280;DHT22;22317;47.936;12.742;2023-06-04T07:59:22;17.70;47.70
36280;DHT22;22317;47.936;12.742;2023-06-04T08:01:50;17.90;47.50
36280;DHT22;22317;47.936;12.742;2023-06-04T08:04:17;17.80;47.30
36280;DHT22;22317;47.936;12.742;2023-06-04T08:06:43;17.90;47.30
36280;DHT22;22317;47.936;12.742;2023-06-04T08:09:09;18.00;47.40
36280;DHT22;22317;47.936;12.742;2023-06-04T08:11:35;18.10;46.80
36280;DHT22;22317;47.936;12.742;2023-06-04T08:14:01;18.10;46.20
36280;DHT22;22317;47.936;12.742;2023-06-04T08:16:27;18.20;45.80
36280;DHT22;22317;47.936;12.742;2023-06-04T08:18:53;18.20;45.60
36280;DHT22;22317;47.936;12.742;2023-06-04T08:21:26;18.40;45.60
36280;DHT22;22317;47.936;12.742;2023-06-04T08:23:52;18.50;46.00
36280;DHT22;22317;47.936;12.742;2023-06-04T08:26:18;18.70;46.00
36280;DHT22;22317;47.936;12.742;2023-06-04T08:28:47;18.90;45.70
36280;DHT22;22317;47.936;12.742;2023-06-04T08:31:13;18.90;43.40
36280;DHT22;22317;47.936;12.742;2023-06-04T08:33:39;19.00;42.50
36280;DHT22;22317;47.936;12.742;2023-06-04T08:36:05;19.10;42.20
36280;DHT22;22317;47.936;12.742;2023-06-04T08:38:31;19.20;41.70
36280;DHT22;22317;47.936;12.742;2023-06-04T08:41:06;19.40;41.00
36280;DHT22;22317;47.936;12.742;2023-06-04T08:43:36;19.50;40.30
36280;DHT22;22317;47.936;12.742;2023-06-04T08:46:03;19.70;40.40
36280;DHT22;22317;47.936;12.742;2023-06-04T08:48:35;19.80;40.00
36280;DHT22;22317;47.936;12.742;2023-06-04T08:51:02;19.80;39.60
36280;DHT22;22317;47.936;12.742;2023-06-04T08:53:31;19.90;39.10
36280;DHT22;22317;47.936;12.742;2023-06-04T08:55:57;19.90;39.10
36280;DHT22;22317;47.936;12.742;2023-06-04T08:58:23;19.90;39.20
36280;DHT22;22317;47.936;12.742;2023-06-04T09:00:50;20.00;39.10
36280;DHT22;22317;47.936;12.742;2023-06-04T09:03:16;20.10;39.10
36280;DHT22;22317;47.936;12.742;2023-06-04T09:05:44;20.10;38.40
36280;DHT22;22317;47.936;12.742;2023-06-04T09:08:16;20.20;39.00
36280;DHT22;22317;47.936;12.742;2023-06-04T09:10:44;20.30;39.50
36280;DHT22;22317;47.936;12.742;2023-06-04T09:13:13;20.40;39.60
36280;DHT22;22317;47.936;12.742;2023-06-04T09:15:40;20.50;39.40
36280;DHT22;22317;47.936;12.742;2023-06-04T09:18:06;20.50;40.00
36280;DHT22;22317;47.936;12.742;2023-06-04T09:20:32;20.60;36.90
36280;DHT22;22317;47.936;12.742;2023-06-04T09:22:58;20.80;36.20
36280;DHT22;22317;47.936;12.742;2023-06-04T09:25:27;20.90;36.10
36280;DHT22;22317;47.936;12.742;2023-06-04T09:28:05;21.00;35.80
36280;DHT22;22317;47.936;12.742;2023-06-04T09:30:31;21.10;35.80
36280;DHT22;22317;47.936;12.742;2023-06-04T09:33:07;21.20;35.80
36280;DHT22;22317;47.936;12.742;2023-06-04T09:35:33;21.40;35.90
36280;DHT22;22317;47.936;12.742;2023-06-04T09:37:59;21.50;36.10
36280;DHT22;22317;47.936;12.742;2023-06-04T09:40:37;21.70;36.00
36280;DHT22;22317;47.936;12.742;2023-06-04T09:43:03;21.90;35.40
36280;DHT22;22317;47.936;12.742;2023-06-04T09:45:30;22.00;35.20
36280;DHT22;22317;47.936;12.742;2023-06-04T09:47:58;22.00;35.10
36280;DHT22;22317;47.936;12.742;2023-06-04T09:50:31;22.20;35.40
36280;DHT22;22317;47.936;12.742;2023-06-04T09:52:59;22.30;35.10
36280;DHT22;22317;47.936;12.742;2023-06-04T09:55:25;22.50;35.10
36280;DHT22;22317;47.936;12.742;2023-06-04T09:57:52;22.60;35.10
36280;DHT22;22317;47.936;12.742;2023-06-04T10:00:20;22.80;34.90
36280;DHT22;22317;47.936;12.742;2023-06-04T10:02:58;23.00;34.70
36280;DHT22;22317;47.936;12.742;2023-06-04T10:05:26;23.00;33.90
36280;DHT22;22317;47.936;12.742;2023-06-04T10:07:57;23.10;33.60
36280;DHT22;22317;47.936;12.742;2023-06-04T10:10:26;23.20;33.50
36280;DHT22;22317;47.936;12.742;2023-06-04T10:13:05;23.40;33.60
36280;DHT22;22317;47.936;12.742;2023-06-04T10:15:32;23.50;33.60
36280;DHT22;22317;47.936;12.742;2023-06-04T10:17:59;22.80;32.70
36280;DHT22;22317;47.936;12.742;2023-06-04T10:20:27;23.60;32.80
36280;DHT22;22317;47.936;12.742;2023-06-04T10:22:54;23.70;32.60
36280;DHT22;22317;47.936;12.742;2023-06-04T10:25:21;23.80;32.30
36280;DHT22;22317;47.936;12.742;2023-06-04T10:27:46;23.90;32.20
36280;DHT22;22317;47.936;12.742;2023-06-04T10:30:13;24.00;32.00
36280;DHT22;22317;47.936;12.742;2023-06-04T10:32:38;24.10;31.90
36280;DHT22;22317;47.936;12.742;2023-06-04T10:35:05;24.10;31.90
36280;DHT22;22317;47.936;12.742;2023-06-04T10:37:33;24.10;31.70
36280;DHT22;22317;47.936;12.742;2023-06-04T10:39:59;24.20;31.70
36280;DHT22;22317;47.936;12.742;2023-06-04T10:42:25;24.30;31.90
36280;DHT22;22317;47.936;12.742;2023-06-04T10:44:53;24.40;31.80
36280;DHT22;22317;47.936;12.742;2023-06-04T10:47:26;24.50;31.70
36280;DHT22;22317;47.936;12.742;2023-06-04T10:49:53;24.50;31.20
36280;DHT22;22317;47.936;12.742;2023-06-04T10:52:20;24.50;30.90
36280;DHT22;22317;47.936;12.742;2023-06-04T10:54:47;24.40;30.50
36280;DHT22;22317;47.936;12.742;2023-06-04T10:57:19;24.30;30.10
36280;DHT22;22317;47.936;12.742;2023-06-04T10:59:59;24.30;30.00
36280;DHT22;22317;47.936;12.742;2023-06-04T11:02:26;24.30;30.00
36280;DHT22;22317;47.936;12.742;2023-06-04T11:05:05;24.30;30.10
36280;DHT22;22317;47.936;12.742;2023-06-04T11:07:46;24.30;30.00
36280;DHT22;22317;47.936;12.742;2023-06-04T11:10:16;24.50;30.00
36280;DHT22;22317;47.936;12.742;2023-06-04T11:12:46;24.60;30.10
36280;DHT22;22317;47.936;12.742;2023-06-04T11:15:16;24.80;30.00
36280;DHT22;22317;47.936;12.742;2023-06-04T11:17:55;25.00;30.30
36280;DHT22;22317;47.936;12.742;2023-06-04T11:20:24;25.20;30.00
36280;DHT22;22317;47.936;12.742;2023-06-04T11:22:53;25.40;29.90
36280;DHT22;22317;47.936;12.742;2023-06-04T11:25:19;25.50;29.60
36280;DHT22;22317;47.936;12.742;2023-06-04T11:27:48;25.50;29.50
36280;DHT22;22317;47.936;12.742;2023-06-04T11:30:16;25.50;29.20
36280;DHT22;22317;47.936;12.742;2023-06-04T11:32:42;25.50;29.10
36280;DHT22;22317;47.936;12.742;2023-06-04T11:35:08;25.60;28.90
36280;DHT22;22317;47.936;12.742;2023-06-04T11:37:34;25.70;28.70
36280;DHT22;22317;47.936;12.742;2023-06-04T11:40:00;25.70;28.60
36280;DHT22;22317;47.936;12.742;2023-06-04T11:42:27;25.70;28.70
36280;DHT22;22317;47.936;12.742;2023-06-04T11:44:58;25.80;28.80
36280;DHT22;22317;47.936;12.742;2023-06-04T11:47:24;26.00;28.50
36280;DHT22;22317;47.936;12.742;2023-06-04T11:49:56;26.10;28.30
36280;DHT22;22317;47.936;12.742;2023-06-04T11:52:22;26.20;28.10
36280;DHT22;22317;47.936;12.742;2023-06-04T11:54:48;26.30;28.20
36280;DHT22;22317;47.936;12.742;2023-06-04T11:57:15;26.30;28.20
36280;DHT22;22317;47.936;12.742;2023-06-04T12:02:07;26.70;48.80
36280;DHT22;22317;47.936;12.742;2023-06-04T12:04:33;26.80;28.10
36280;DHT22;22317;47.936;12.742;2023-06-04T12:07:00;26.90;27.90
36280;DHT22;22317;47.936;12.742;2023-06-04T12:09:32;26.90;27.90
36280;DHT22;22317;47.936;12.742;2023-06-04T12:12:03;26.90;27.90
36280;DHT22;22317;47.936;12.742;2023-06-04T12:14:29;26.90;28.10
36280;DHT22;22317;47.936;12.742;2023-06-04T12:17:05;26.90;28.00
36280;DHT22;22317;47.936;12.742;2023-06-04T12:19:32;26.90;27.90
36280;DHT22;22317;47.936;12.742;2023-06-04T12:24:27;27.10;27.80
36280;DHT22;22317;47.936;12.742;2023-06-04T12:27:02;27.10;27.90
36280;DHT22;22317;47.936;12.742;2023-06-04T12:29:28;27.10;28.00
36280;DHT22;22317;47.936;12.742;2023-06-04T12:32:05;27.00;27.90
36280;DHT22;22317;47.936;12.742;2023-06-04T12:34:36;26.90;28.00
36280;DHT22;22317;47.936;12.742;2023-06-04T12:37:02;26.90;28.10
36280;DHT22;22317;47.936;12.742;2023-06-04T12:39:35;26.90;28.00
36280;DHT22;22317;47.936;12.742;2023-06-04T12:42:06;26.90;28.00
36280;DHT22;22317;47.936;12.742;2023-06-04T12:44:35;26.90;28.00
36280;DHT22;22317;47.936;12.742;2023-06-04T12:47:04;26.90;28.00
36280;DHT22;22317;47.936;12.742;2023-06-04T12:49:30;26.90;28.10
36280;DHT22;22317;47.936;12.742;2023-06-04T12:51:56;26.90;27.90
36280;DHT22;22317;47.936;12.742;2023-06-04T12:54:22;27.00;28.00
36280;DHT22;22317;47.936;12.742;2023-06-04T12:56:48;27.00;28.20
36280;DHT22;22317;47.936;12.742;2023-06-04T12:59:14;27.00;28.00
36280;DHT22;22317;47.936;12.742;2023-06-04T13:01:40;27.00;28.10
36280;DHT22;22317;47.936;12.742;2023-06-04T13:04:06;27.10;28.30
36280;DHT22;22317;47.936;12.742;2023-06-04T13:06:34;27.10;28.20
36280;DHT22;22317;47.936;12.742;2023-06-04T13:09:01;26.40;27.60
36280;DHT22;22317;47.936;12.742;2023-06-04T13:11:28;27.10;27.80
36280;DHT22;22317;47.936;12.742;2023-06-04T13:13:54;27.10;27.80
36280;DHT22;22317;47.936;12.742;2023-06-04T13:16:20;27.10;27.80
36280;DHT22;22317;47.936;12.742;2023-06-04T13:18:45;27.10;27.70
36280;DHT22;22317;47.936;12.742;2023-06-04T13:21:12;27.00;27.70
36280;DHT22;22317;47.936;12.742;2023-06-04T13:23:37;27.00;27.60
36280;DHT22;22317;47.936;12.742;2023-06-04T13:26:03;27.00;28.40
36280;DHT22;22317;47.936;12.742;2023-06-04T13:28:29;27.00;27.90
36280;DHT22;22317;47.936;12.742;2023-06-04T13:30:55;27.10;28.10
36280;DHT22;22317;47.936;12.742;2023-06-04T13:33:21;27.20;28.20
36280;DHT22;22317;47.936;12.742;2023-06-04T13:35:47;27.30;27.90
36280;DHT22;22317;47.936;12.742;2023-06-04T13:38:13;27.40;27.60
36280;DHT22;22317;47.936;12.742;2023-06-04T13:40:39;27.50;27.50
36280;DHT22;22317;47.936;12.742;2023-06-04T13:43:05;27.60;27.80
36280;DHT22;22317;47.936;12.742;2023-06-04T13:45:32;27.60;27.30
36280;DHT22;22317;47.936;12.742;2023-06-04T13:47:58;27.60;27.10
36280;DHT22;22317;47.936;12.742;2023-06-04T13:50:31;27.50;27.20
36280;DHT22;22317;47.936;12.742;2023-06-04T13:52:57;27.50;27.10
36280;DHT22;22317;47.936;12.742;2023-06-04T13:55:23;27.40;27.10
36280;DHT22;22317;47.936;12.742;2023-06-04T13:57:48;27.50;27.30
36280;DHT22;22317;47.936;12.742;2023-06-04T14:00:14;27.50;27.20
36280;DHT22;22317;47.936;12.742;2023-06-04T14:02:40;27.50;27.10
36280;DHT22;22317;47.936;12.742;2023-06-04T14:05:06;27.50;27.20
36280;DHT22;22317;47.936;12.742;2023-06-04T14:07:33;27.60;27.30
36280;DHT22;22317;47.936;12.742;2023-06-04T14:09:58;27.60;27.50
36280;DHT22;22317;47.936;12.742;2023-06-04T14:12:24;27.60;27.40
36280;DHT22;22317;47.936;12.742;2023-06-04T14:14:50;27.60;27.30
36280;DHT22;22317;47.936;12.742;2023-06-04T14:17:16;27.60;27.30
36280;DHT22;22317;47.936;12.742;2023-06-04T14:19:42;27.60;27.40
36280;DHT22;22317;47.936;12.742;2023-06-04T14:22:10;27.50;27.20
36280;DHT22;22317;47.936;12.742;2023-06-04T14:24:35;27.50;27.20
36280;DHT22;22317;47.936;12.742;2023-06-04T14:27:01;27.50;27.50
36280;DHT22;22317;47.936;12.742;2023-06-04T14:29:27;27.50;27.60
36280;DHT22;22317;47.936;12.742;2023-06-04T14:31:53;27.60;27.50
36280;DHT22;22317;47.936;12.742;2023-06-04T14:34:18;27.60;27.40
36280;DHT22;22317;47.936;12.742;2023-06-04T14:36:45;27.80;27.40
36280;DHT22;22317;47.936;12.742;2023-06-04T14:39:11;27.80;27.30
36280;DHT22;22317;47.936;12.742;2023-06-04T14:41:36;27.60;27.00
36280;DHT22;22317;47.936;12.742;2023-06-04T14:44:02;27.60;27.00
36280;DHT22;22317;47.936;12.742;2023-06-04T14:46:28;27.40;26.90
36280;DHT22;22317;47.936;12.742;2023-06-04T14:48:54;27.40;26.90
36280;DHT22;22317;47.936;12.742;2023-06-04T14:51:20;27.30;27.00
36280;DHT22;22317;47.936;12.742;2023-06-04T14:53:48;27.40;27.30
36280;DHT22;22317;47.936;12.742;2023-06-04T14:56:14;27.40;28.00
36280;DHT22;22317;47.936;12.742;2023-06-04T14:58:39;27.50;27.50
36280;DHT22;22317;47.936;12.742;2023-06-04T15:01:05;27.60;27.50
36280;DHT22;22317;47.936;12.742;2023-06-04T15:03:32;27.60;27.30
36280;DHT22;22317;47.936;12.742;2023-06-04T15:05:58;27.70;27.30
36280;DHT22;22317;47.936;12.742;2023-06-04T15:08:23;27.70;27.30
36280;DHT22;22317;47.936;12.742;2023-06-04T15:10:49;27.70;27.30
36280;DHT22;22317;47.936;12.742;2023-06-04T15:13:15;27.80;27.20
36280;DHT22;22317;47.936;12.742;2023-06-04T15:15:41;27.70;27.00
36280;DHT22;22317;47.936;12.742;2023-06-04T15:18:07;27.60;26.80
36280;DHT22;22317;47.936;12.742;2023-06-04T15:20:33;27.50;26.90
36280;DHT22;22317;47.936;12.742;2023-06-04T15:22:59;27.30;26.80
36280;DHT22;22317;47.936;12.742;2023-06-04T15:25:24;27.10;26.90
36280;DHT22;22317;47.936;12.742;2023-06-04T15:27:50;26.90;27.00